Time;durP1;ratioP1;P1;durP2;ratioP2;P2;SDS_P1;SDS_P2;PMS_P1;PMS_P2;Temp;Humidity;BMP_temperature;BMP_pressure;BME280_temperature;BME280_humidity;BME280_pressure;Samples;Min_cycle;Max_cycle;Signal;HPM_P1;HPM_P2
2022/10/13 00:00:38;;;;;;;42.40;23.80;;;;;;;;;;5157251;27;20451;-73
2022/10/13 00:03:05;;;;;;;37.13;24.07;;;;;;;;;;5157405;27;20998;-73
2022/10/13 00:05:34;;;;;;;36.13;22.83;;;;;;;;;;5156422;27;20467;-74
2022/10/13 00:08:01;;;;;;;30.30;22.00;;;;;;;;;;5157172;27;20455;-73
2022/10/13 00:10:28;;;;;;;34.50;24.50;;;;;;;;;;5157206;27;20447;-73
2022/10/13 00:12:56;;;;;;;38.00;23.50;;;;;;;;;;5156965;27;20459;-73
2022/10/13 00:15:24;;;;;;;30.57;22.57;;;;;;;;;;5156334;27;20475;-73
2022/10/13 00:17:52;;;;;;;36.73;23.53;;;;;;;;;;5156950;27;20494;-73
2022/10/13 00:20:19;;;;;;;38.03;23.03;;;;;;;;;;5157025;27;20447;-74
2022/10/13 00:22:47;;;;;;;35.93;23.73;;;;;;;;;;5155748;27;20447;-73
2022/10/13 00:25:14;;;;;;;34.70;23.07;;;;;;;;;;5156177;27;20470;-73
2022/10/13 00:27:41;;;;;;;31.03;22.90;;;;;;;;;;5156943;27;20925;-73
2022/10/13 00:30:09;;;;;;;30.30;21.43;;;;;;;;;;5157018;27;20450;-73
2022/10/13 00:32:36;;;;;;;34.93;23.00;;;;;;;;;;5156707;27;20448;-73
2022/10/13 00:35:03;;;;;;;30.90;20.80;;;;;;;;;;5156130;27;20479;-73
2022/10/13 00:37:30;;;;;;;30.20;22.93;;;;;;;;;;5156670;27;20475;-73
2022/10/13 00:39:59;;;;;;;34.97;21.07;;;;;;;;;;5156852;27;20801;-73
2022/10/13 00:42:26;;;;;;;28.33;20.63;;;;;;;;;;5156800;27;20813;-73
2022/10/13 00:45:00;;;;;;;35.97;22.07;;;;;;;;;;5155712;27;20464;-73
2022/10/13 00:47:29;;;;;;;30.30;20.90;;;;;;;;;;5156302;27;20443;-74
2022/10/13 00:49:56;;;;;;;31.60;23.50;;;;;;;;;;5156421;27;20451;-73
2022/10/13 00:52:24;;;;;;;34.23;21.50;;;;;;;;;;5156411;27;20452;-73
2022/10/13 00:54:51;;;;;;;29.43;21.50;;;;;;;;;;5155690;27;20463;-73
2022/10/13 00:57:20;;;;;;;26.13;21.03;;;;;;;;;;5156079;27;20483;-73
2022/10/13 00:59:48;;;;;;;32.50;21.00;;;;;;;;;;5156105;27;20447;-73
2022/10/13 01:02:15;;;;;;;29.10;21.20;;;;;;;;;;5156294;27;20450;-73
2022/10/13 01:04:44;;;;;;;33.97;23.13;;;;;;;;;;5155525;27;20514;-73
2022/10/13 01:07:13;;;;;;;32.10;24.07;;;;;;;;;;5156102;27;20452;-73
2022/10/13 01:09:41;;;;;;;32.37;22.23;;;;;;;;;;5156016;27;20959;-73
2022/10/13 01:12:13;;;;;;;32.63;21.60;;;;;;;;;;5155824;27;20559;-73
2022/10/13 01:14:45;;;;;;;27.97;20.47;;;;;;;;;;5155196;27;20451;-73
2022/10/13 01:17:16;;;;;;;32.87;22.60;;;;;;;;;;5156051;27;20494;-73
2022/10/13 01:19:57;;;;;;;30.47;22.30;;;;;;;;;;5155969;27;20454;-73
2022/10/13 01:22:36;;;;;;;35.80;22.40;;;;;;;;;;5155922;27;20458;-73
2022/10/13 01:25:06;;;;;;;29.87;22.87;;;;;;;;;;5155140;27;20847;-73
2022/10/13 01:27:39;;;;;;;30.37;21.67;;;;;;;;;;5155616;27;20810;-73
2022/10/13 01:30:17;;;;;;;31.03;22.40;;;;;;;;;;5155791;27;20869;-73
2022/10/13 01:33:02;;;;;;;34.03;23.00;;;;;;;;;;5155239;27;20450;-73
2022/10/13 01:35:34;;;;;;;36.10;24.60;;;;;;;;;;5154787;27;20467;-73
2022/10/13 01:38:05;;;;;;;32.27;23.07;;;;;;;;;;5155488;27;20513;-73
2022/10/13 01:40:35;;;;;;;37.60;24.57;;;;;;;;;;5155515;27;20458;-73
2022/10/13 01:43:05;;;;;;;49.30;24.00;;;;;;;;;;5153040;27;20442;-73
2022/10/13 01:45:36;;;;;;;33.40;21.33;;;;;;;;;;5154674;27;20468;-73
2022/10/13 01:48:04;;;;;;;28.57;22.60;;;;;;;;;;5155448;27;20456;-73
2022/10/13 01:50:33;;;;;;;29.03;20.40;;;;;;;;;;5155289;27;20488;-73
2022/10/13 01:53:00;;;;;;;26.50;20.60;;;;;;;;;;5155231;27;20448;-73
2022/10/13 01:55:28;;;;;;;28.63;22.33;;;;;;;;;;5154401;27;20468;-73
2022/10/13 01:57:56;;;;;;;36.77;22.60;;;;;;;;;;5155029;27;20479;-73
2022/10/13 02:00:23;;;;;;;32.07;21.73;;;;;;;;;;5154990;27;20455;-73
2022/10/13 02:02:58;;;;;;;29.13;22.37;;;;;;;;;;5155018;27;20520;-73
2022/10/13 02:05:30;;;;;;;26.80;19.23;;;;;;;;;;5154268;27;20473;-73
2022/10/13 02:08:00;;;;;;;35.53;20.90;;;;;;;;;;5155013;27;20452;-73
2022/10/13 02:10:29;;;;;;;32.20;21.37;;;;;;;;;;5154849;27;20945;-73
2022/10/13 02:12:57;;;;;;;31.07;20.50;;;;;;;;;;5154692;27;20491;-73
2022/10/13 02:15:26;;;;;;;28.70;21.60;;;;;;;;;;5154367;27;20488;-73
2022/10/13 02:17:55;;;;;;;33.17;21.77;;;;;;;;;;5154716;27;20487;-73
2022/10/13 02:20:23;;;;;;;26.37;20.50;;;;;;;;;;5154781;27;20933;-73
2022/10/13 02:22:55;;;;;;;32.53;21.70;;;;;;;;;;5154573;27;20447;-73
2022/10/13 02:25:23;;;;;;;23.20;19.23;;;;;;;;;;5154060;27;20472;-73
2022/10/13 02:27:50;;;;;;;28.50;21.50;;;;;;;;;;5154833;27;20523;-73
2022/10/13 02:30:21;;;;;;;31.17;20.47;;;;;;;;;;5154677;27;20485;-73
2022/10/13 02:32:48;;;;;;;37.70;22.10;;;;;;;;;;5154743;27;20788;-73
2022/10/13 02:35:16;;;;;;;30.37;21.43;;;;;;;;;;5153800;27;20475;-73
2022/10/13 02:37:44;;;;;;;28.47;21.97;;;;;;;;;;5154302;27;20838;-73
2022/10/13 02:40:11;;;;;;;30.00;22.37;;;;;;;;;;5154522;27;20976;-73
2022/10/13 02:42:38;;;;;;;35.17;22.43;;;;;;;;;;5152675;27;20451;-73
2022/10/13 02:45:06;;;;;;;37.43;21.90;;;;;;;;;;5153196;27;20468;-73
2022/10/13 02:47:33;;;;;;;30.93;20.80;;;;;;;;;;5154431;27;20451;-73
2022/10/13 02:50:00;;;;;;;31.90;20.87;;;;;;;;;;5154377;27;20443;-73
2022/10/13 02:52:29;;;;;;;25.17;19.80;;;;;;;;;;5154376;27;20830;-74
2022/10/13 02:54:56;;;;;;;29.77;21.20;;;;;;;;;;5153623;27;20471;-73
2022/10/13 02:57:23;;;;;;;32.33;19.80;;;;;;;;;;5154277;27;20462;-73
2022/10/13 02:59:50;;;;;;;25.87;21.40;;;;;;;;;;5154404;27;21026;-73
2022/10/13 03:02:17;;;;;;;25.13;19.10;;;;;;;;;;5154180;27;20454;-73
2022/10/13 03:04:44;;;;;;;25.53;19.47;;;;;;;;;;5153361;27;20471;-73
2022/10/13 03:07:12;;;;;;;27.90;19.50;;;;;;;;;;5154150;27;20455;-73
2022/10/13 03:09:40;;;;;;;28.53;19.73;;;;;;;;;;5154109;27;20450;-73
2022/10/13 03:12:07;;;;;;;29.73;21.13;;;;;;;;;;5154179;27;20451;-73
2022/10/13 03:14:35;;;;;;;32.90;23.20;;;;;;;;;;5153493;27;20447;-73
2022/10/13 03:17:02;;;;;;;32.23;20.23;;;;;;;;;;5154267;27;20473;-73
2022/10/13 03:19:29;;;;;;;32.47;21.60;;;;;;;;;;5153930;27;20490;-73
2022/10/13 03:21:56;;;;;;;29.40;19.83;;;;;;;;;;5154186;27;20943;-73
2022/10/13 03:24:24;;;;;;;31.97;21.97;;;;;;;;;;5153329;27;20444;-73
2022/10/13 03:26:52;;;;;;;30.97;22.33;;;;;;;;;;5154082;27;20790;-73
2022/10/13 03:29:19;;;;;;;32.13;21.73;;;;;;;;;;5154015;27;20448;-73
2022/10/13 03:31:46;;;;;;;27.10;19.60;;;;;;;;;;5154134;27;20443;-73
2022/10/13 03:34:13;;;;;;;30.43;20.90;;;;;;;;;;5153355;27;20946;-73
2022/10/13 03:36:40;;;;;;;25.93;20.00;;;;;;;;;;5153861;27;20478;-73
2022/10/13 03:39:08;;;;;;;30.30;22.30;;;;;;;;;;5153960;27;20505;-73
2022/10/13 03:41:35;;;;;;;31.17;21.27;;;;;;;;;;5154095;27;20451;-73
2022/10/13 03:44:03;;;;;;;34.10;22.60;;;;;;;;;;5153420;27;20439;-73
2022/10/13 03:46:31;;;;;;;35.37;22.30;;;;;;;;;;5153617;27;20474;-73
2022/10/13 03:48:58;;;;;;;25.70;20.43;;;;;;;;;;5153904;27;20803;-73
2022/10/13 03:51:25;;;;;;;32.17;23.23;;;;;;;;;;5153725;27;20444;-73
2022/10/13 03:53:53;;;;;;;35.13;22.73;;;;;;;;;;5153177;27;20447;-73
2022/10/13 03:56:21;;;;;;;33.90;20.50;;;;;;;;;;5155167;27;20467;-73
2022/10/13 03:58:52;;;;;;;30.27;23.33;;;;;;;;;;5157325;27;21018;-73
2022/10/13 04:01:21;;;;;;;28.10;20.83;;;;;;;;;;5157700;27;20459;-73
2022/10/13 04:03:49;;;;;;;34.33;22.70;;;;;;;;;;5156912;27;20835;-74
2022/10/13 04:06:17;;;;;;;29.13;21.33;;;;;;;;;;5157316;27;20463;-73
2022/10/13 04:08:44;;;;;;;31.50;20.47;;;;;;;;;;5157123;27;20489;-73
2022/10/13 04:11:12;;;;;;;50.00;31.83;;;;;;;;;;5157163;27;20953;-73
2022/10/13 04:13:39;;;;;;;43.60;26.90;;;;;;;;;;5156435;27;20462;-73
2022/10/13 04:16:07;;;;;;;29.33;23.70;;;;;;;;;;5157058;27;21002;-73
2022/10/13 04:18:36;;;;;;;29.77;20.53;;;;;;;;;;5156893;27;20487;-73
2022/10/13 04:21:07;;;;;;;33.87;22.60;;;;;;;;;;5157018;27;20448;-73
2022/10/13 04:23:34;;;;;;;34.67;22.40;;;;;;;;;;5156367;27;20447;-74
2022/10/13 04:26:01;;;;;;;33.97;25.33;;;;;;;;;;5156862;27;20587;-73
2022/10/13 04:28:28;;;;;;;37.70;25.50;;;;;;;;;;5156871;27;20933;-73
2022/10/13 04:30:56;;;;;;;49.93;32.87;;;;;;;;;;5156927;27;20443;-73
2022/10/13 04:33:23;;;;;;;48.40;34.20;;;;;;;;;;5156842;27;20944;-73
2022/10/13 04:35:51;;;;;;;32.97;25.83;;;;;;;;;;5156368;27;20474;-73
2022/10/13 04:38:18;;;;;;;36.57;24.27;;;;;;;;;;5156578;27;20502;-73
2022/10/13 04:40:46;;;;;;;34.40;23.90;;;;;;;;;;5156570;27;20459;-73
2022/10/13 04:43:14;;;;;;;31.97;22.40;;;;;;;;;;5153953;27;20462;-73
2022/10/13 04:45:41;;;;;;;30.73;21.90;;;;;;;;;;5155938;27;20528;-73
2022/10/13 04:48:08;;;;;;;37.17;22.97;;;;;;;;;;5156606;27;20454;-73
2022/10/13 04:50:36;;;;;;;40.40;22.80;;;;;;;;;;5156540;27;20452;-73
2022/10/13 04:53:04;;;;;;;42.63;24.37;;;;;;;;;;5156278;27;20448;-73
2022/10/13 04:55:32;;;;;;;30.27;21.80;;;;;;;;;;5155186;27;20471;-73
2022/10/13 04:57:59;;;;;;;40.83;25.83;;;;;;;;;;5155737;27;20446;-73
2022/10/13 05:00:26;;;;;;;33.30;25.27;;;;;;;;;;5155614;27;20483;-73
2022/10/13 05:02:53;;;;;;;42.50;27.43;;;;;;;;;;5155708;27;20755;-73
2022/10/13 05:05:20;;;;;;;37.73;23.30;;;;;;;;;;5154720;27;20474;-73
2022/10/13 05:07:47;;;;;;;32.93;22.63;;;;;;;;;;5154793;27;20543;-73
2022/10/13 05:10:16;;;;;;;27.53;20.23;;;;;;;;;;5155620;27;20448;-73
2022/10/13 05:12:43;;;;;;;28.43;20.97;;;;;;;;;;5155375;27;20459;-73
2022/10/13 05:15:10;;;;;;;29.57;21.10;;;;;;;;;;5154647;27;20523;-73
2022/10/13 05:17:37;;;;;;;28.17;19.57;;;;;;;;;;5155333;27;20448;-73
2022/10/13 05:20:05;;;;;;;27.97;20.10;;;;;;;;;;5155151;27;20853;-73
2022/10/13 05:22:32;;;;;;;30.30;20.97;;;;;;;;;;5155269;27;20443;-73
2022/10/13 05:25:00;;;;;;;28.97;20.97;;;;;;;;;;5154534;27;20492;-73
2022/10/13 05:27:29;;;;;;;26.50;20.40;;;;;;;;;;5155165;27;20904;-73
2022/10/13 05:29:56;;;;;;;30.53;19.37;;;;;;;;;;5155069;27;20456;-73
2022/10/13 05:32:23;;;;;;;33.40;21.37;;;;;;;;;;5155124;27;20538;-73
2022/10/13 05:34:50;;;;;;;27.77;18.97;;;;;;;;;;5154255;27;20487;-73
2022/10/13 05:37:17;;;;;;;37.87;19.97;;;;;;;;;;5154873;27;20454;-73
2022/10/13 05:39:44;;;;;;;31.50;20.73;;;;;;;;;;5154885;27;20482;-73
2022/10/13 05:42:11;;;;;;;35.90;24.70;;;;;;;;;;5152424;27;20448;-73
2022/10/13 05:44:40;;;;;;;35.97;22.20;;;;;;;;;;5154421;27;20447;-73
2022/10/13 05:47:07;;;;;;;29.63;21.80;;;;;;;;;;5154776;27;20448;-73
2022/10/13 05:49:38;;;;;;;38.67;27.70;;;;;;;;;;5154829;27;20535;-73
2022/10/13 05:52:08;;;;;;;33.27;20.63;;;;;;;;;;5154907;27;20494;-73
2022/10/13 05:54:37;;;;;;;35.23;21.70;;;;;;;;;;5153866;27;20460;-73
2022/10/13 05:57:05;;;;;;;35.37;24.33;;;;;;;;;;5154737;27;20444;-73
2022/10/13 05:59:35;;;;;;;52.83;31.97;;;;;;;;;;5154345;27;20490;-73
2022/10/13 06:02:04;;;;;;;37.97;25.40;;;;;;;;;;5154421;27;20464;-73
2022/10/13 06:04:33;;;;;;;32.53;22.50;;;;;;;;;;5153904;27;20959;-73
2022/10/13 06:07:00;;;;;;;35.63;21.20;;;;;;;;;;5154488;27;20451;-73
2022/10/13 06:09:33;;;;;;;34.30;25.63;;;;;;;;;;5154536;27;20523;-73
2022/10/13 06:12:00;;;;;;;32.13;21.63;;;;;;;;;;5154399;27;20486;-73
2022/10/13 06:14:27;;;;;;;25.80;20.40;;;;;;;;;;5153533;27;20452;-74
2022/10/13 06:16:55;;;;;;;29.80;21.60;;;;;;;;;;5154376;27;20916;-73
2022/10/13 06:19:23;;;;;;;31.30;21.77;;;;;;;;;;5153453;27;20494;-73
2022/10/13 06:21:50;;;;;;;33.03;23.03;;;;;;;;;;5154365;27;20454;-73
2022/10/13 06:24:17;;;;;;;29.07;20.00;;;;;;;;;;5153746;27;20458;-73
2022/10/13 06:26:44;;;;;;;30.60;20.37;;;;;;;;;;5153980;27;20474;-73
2022/10/13 06:29:12;;;;;;;25.20;18.30;;;;;;;;;;5154313;27;20451;-73
2022/10/13 06:31:39;;;;;;;28.27;19.20;;;;;;;;;;5154139;27;20805;-73
2022/10/13 06:34:06;;;;;;;26.20;20.00;;;;;;;;;;5153553;27;20458;-73
2022/10/13 06:36:35;;;;;;;34.03;19.70;;;;;;;;;;5153910;27;20467;-73
2022/10/13 06:39:02;;;;;;;28.27;19.67;;;;;;;;;;5153787;27;20452;-73
2022/10/13 06:41:29;;;;;;;24.83;17.63;;;;;;;;;;5153960;27;20455;-73
2022/10/13 06:43:56;;;;;;;23.97;18.20;;;;;;;;;;5151049;27;20459;-73
2022/10/13 06:46:23;;;;;;;23.60;17.60;;;;;;;;;;5153927;27;20462;-73
2022/10/13 06:48:51;;;;;;;20.27;15.80;;;;;;;;;;5153893;27;20451;-73
2022/10/13 06:51:18;;;;;;;22.97;16.83;;;;;;;;;;5153961;27;20542;-73
2022/10/13 06:53:47;;;;;;;26.43;21.50;;;;;;;;;;5152904;27;20456;-73
2022/10/13 06:56:14;;;;;;;21.83;17.20;;;;;;;;;;5153669;27;20498;-73
2022/10/13 06:58:41;;;;;;;21.10;16.30;;;;;;;;;;5153749;27;20539;-73
2022/10/13 07:01:09;;;;;;;19.37;15.47;;;;;;;;;;5153733;27;20479;-73
2022/10/13 07:03:36;;;;;;;29.40;16.73;;;;;;;;;;5153222;27;20452;-73
2022/10/13 07:06:04;;;;;;;25.67;16.20;;;;;;;;;;5153473;27;20471;-73
2022/10/13 07:08:31;;;;;;;26.07;16.87;;;;;;;;;;5153642;27;20452;-74
2022/10/13 07:11:00;;;;;;;25.03;16.10;;;;;;;;;;5153650;27;20543;-73
2022/10/13 07:13:27;;;;;;;21.57;15.60;;;;;;;;;;5153117;27;20444;-74
2022/10/13 07:15:54;;;;;;;24.13;16.60;;;;;;;;;;5153582;27;20542;-73
2022/10/13 07:18:21;;;;;;;18.93;14.57;;;;;;;;;;5153525;27;20451;-74
2022/10/13 07:20:48;;;;;;;26.97;16.37;;;;;;;;;;5153452;27;20538;-73
2022/10/13 07:23:16;;;;;;;30.87;16.30;;;;;;;;;;5153405;27;20462;-74
2022/10/13 07:25:43;;;;;;;18.13;14.33;;;;;;;;;;5152935;27;20489;-73
2022/10/13 07:28:11;;;;;;;18.70;13.73;;;;;;;;;;5153349;27;20448;-73
2022/10/13 07:30:39;;;;;;;16.97;13.00;;;;;;;;;;5154007;27;20436;-73
2022/10/13 07:33:06;;;;;;;18.70;13.53;;;;;;;;;;5157575;27;20448;-73
2022/10/13 07:35:33;;;;;;;19.93;14.20;;;;;;;;;;5156469;27;20463;-73
2022/10/13 07:38:00;;;;;;;22.30;12.80;;;;;;;;;;5157331;27;20450;-73
2022/10/13 07:40:28;;;;;;;16.83;13.40;;;;;;;;;;5157085;27;20498;-74
2022/10/13 07:42:56;;;;;;;20.17;13.10;;;;;;;;;;5154888;27;20451;-73
2022/10/13 07:45:24;;;;;;;24.40;13.73;;;;;;;;;;5156614;27;20473;-73
2022/10/13 07:47:52;;;;;;;19.07;13.10;;;;;;;;;;5157267;27;20466;-73
2022/10/13 07:50:19;;;;;;;18.13;14.03;;;;;;;;;;5157126;27;21050;-73
2022/10/13 07:52:46;;;;;;;18.77;13.60;;;;;;;;;;5157103;27;20546;-73
2022/10/13 07:55:13;;;;;;;20.87;11.90;;;;;;;;;;5156353;27;21013;-73
2022/10/13 07:57:40;;;;;;;23.50;13.77;;;;;;;;;;5156974;27;21013;-73
2022/10/13 08:00:08;;;;;;;20.70;12.30;;;;;;;;;;5156998;27;20483;-73
2022/10/13 08:02:37;;;;;;;22.27;13.57;;;;;;;;;;5156663;27;20457;-73
2022/10/13 08:05:04;;;;;;;23.17;14.57;;;;;;;;;;5156309;27;20482;-73
2022/10/13 08:07:31;;;;;;;19.70;13.30;;;;;;;;;;5156740;27;20447;-74
2022/10/13 08:09:58;;;;;;;18.03;13.47;;;;;;;;;;5156869;27;20455;-73
2022/10/13 08:12:25;;;;;;;17.97;12.47;;;;;;;;;;5156608;27;20968;-73
2022/10/13 08:14:52;;;;;;;20.07;13.43;;;;;;;;;;5155962;27;20468;-74
2022/10/13 08:17:19;;;;;;;15.70;11.57;;;;;;;;;;5156593;27;20466;-74
2022/10/13 08:19:48;;;;;;;16.93;12.70;;;;;;;;;;5156397;27;21024;-73
2022/10/13 08:22:15;;;;;;;15.50;12.30;;;;;;;;;;5156525;27;20901;-73
2022/10/13 08:24:43;;;;;;;16.00;12.00;;;;;;;;;;5155504;27;20448;-73
2022/10/13 08:27:11;;;;;;;15.57;12.87;;;;;;;;;;5156451;27;20470;-73
2022/10/13 08:29:38;;;;;;;20.50;12.63;;;;;;;;;;5156370;27;20447;-74
2022/10/13 08:32:05;;;;;;;12.80;11.17;;;;;;;;;;5156306;27;20951;-73
2022/10/13 08:34:32;;;;;;;16.73;12.50;;;;;;;;;;5155396;27;20764;-73
2022/10/13 08:37:01;;;;;;;15.20;12.00;;;;;;;;;;5156195;27;20467;-73
2022/10/13 08:39:28;;;;;;;17.60;13.00;;;;;;;;;;5156039;27;20452;-73
2022/10/13 08:41:56;;;;;;;16.50;11.30;;;;;;;;;;5154795;27;20451;-74
2022/10/13 08:44:26;;;;;;;15.13;11.67;;;;;;;;;;5154764;27;20451;-73
2022/10/13 08:46:58;;;;;;;12.40;10.30;;;;;;;;;;5156024;27;20443;-74
2022/10/13 08:49:25;;;;;;;18.83;11.37;;;;;;;;;;5156194;27;20771;-73
2022/10/13 08:51:53;;;;;;;17.00;11.23;;;;;;;;;;5156050;27;20448;-73
2022/10/13 08:54:22;;;;;;;14.67;11.77;;;;;;;;;;5155469;27;20439;-73
2022/10/13 08:56:50;;;;;;;13.20;11.53;;;;;;;;;;5155514;27;20959;-73
2022/10/13 08:59:18;;;;;;;14.90;11.90;;;;;;;;;;5155752;27;20452;-73
2022/10/13 09:01:48;;;;;;;14.27;12.10;;;;;;;;;;5155633;27;20483;-73
2022/10/13 09:04:25;;;;;;;17.13;11.27;;;;;;;;;;5155387;27;20983;-73
2022/10/13 09:06:54;;;;;;;19.33;12.37;;;;;;;;;;5155726;27;20451;-73
2022/10/13 09:09:22;;;;;;;24.87;11.67;;;;;;;;;;5155488;27;20927;-74
2022/10/13 09:11:50;;;;;;;17.83;9.93;;;;;;;;;;5155364;27;20459;-73
2022/10/13 09:14:21;;;;;;;15.13;10.77;;;;;;;;;;5155115;27;20448;-73
2022/10/13 09:16:49;;;;;;;19.33;11.90;;;;;;;;;;5155417;27;20475;-73
2022/10/13 09:19:26;;;;;;;15.20;10.67;;;;;;;;;;5155442;27;20448;-74
2022/10/13 09:21:54;;;;;;;17.57;11.77;;;;;;;;;;5155403;27;20494;-73
2022/10/13 09:24:23;;;;;;;16.47;11.27;;;;;;;;;;5154702;27;20454;-74
2022/10/13 09:26:52;;;;;;;16.17;11.00;;;;;;;;;;5155189;27;20444;-73
2022/10/13 09:29:20;;;;;;;17.23;10.50;;;;;;;;;;5155251;27;20484;-73
2022/10/13 09:31:47;;;;;;;17.07;10.33;;;;;;;;;;5155301;27;20451;-73
2022/10/13 09:34:16;;;;;;;13.03;10.77;;;;;;;;;;5154510;27;20444;-74
2022/10/13 09:37:01;;;;;;;20.73;12.57;;;;;;;;;;5154924;27;20467;-74
2022/10/13 09:39:31;;;;;;;17.90;12.30;;;;;;;;;;5154959;27;20455;-74
2022/10/13 09:42:19;;;;;;;15.10;11.07;;;;;;;;;;5153191;27;20490;-74
2022/10/13 09:44:47;;;;;;;12.50;11.00;;;;;;;;;;5154062;27;20478;-74
2022/10/13 09:47:19;;;;;;;14.50;11.30;;;;;;;;;;5154894;27;20456;-74
2022/10/13 09:49:47;;;;;;;17.73;10.67;;;;;;;;;;5155280;27;20457;-74
2022/10/13 09:52:16;;;;;;;13.97;11.50;;;;;;;;;;5154953;27;20980;-74
2022/10/13 09:54:49;;;;;;;17.43;12.50;;;;;;;;;;5153977;27;20463;-73
2022/10/13 09:57:23;;;;;;;14.13;10.17;;;;;;;;;;5154889;27;20956;-74
2022/10/13 09:59:51;;;;;;;14.73;9.93;;;;;;;;;;5154733;27;20489;-73
2022/10/13 10:02:27;;;;;;;14.33;10.27;;;;;;;;;;5154805;27;20551;-73
2022/10/13 10:04:54;;;;;;;14.10;9.70;;;;;;;;;;5153827;27;20471;-74
2022/10/13 10:07:22;;;;;;;16.93;10.60;;;;;;;;;;5154416;27;20932;-73
2022/10/13 10:09:53;;;;;;;14.37;9.37;;;;;;;;;;5154419;27;20539;-73
2022/10/13 10:12:22;;;;;;;13.93;9.27;;;;;;;;;;5154471;27;20470;-74
2022/10/13 10:14:49;;;;;;;17.53;10.87;;;;;;;;;;5153606;27;20479;-73
2022/10/13 10:17:20;;;;;;;11.33;9.03;;;;;;;;;;5154231;27;20516;-73
2022/10/13 10:19:53;;;;;;;15.83;9.57;;;;;;;;;;5154275;27;20443;-73
2022/10/13 10:22:25;;;;;;;14.27;11.27;;;;;;;;;;5154084;27;20583;-74
2022/10/13 10:24:56;;;;;;;13.20;10.40;;;;;;;;;;5153729;27;20838;-73
2022/10/13 10:27:27;;;;;;;15.50;10.33;;;;;;;;;;5154126;27;20455;-73
2022/10/13 10:29:57;;;;;;;16.90;8.97;;;;;;;;;;5154022;27;20471;-74
2022/10/13 10:32:29;;;;;;;14.70;10.20;;;;;;;;;;5154025;27;20449;-74
2022/10/13 10:35:00;;;;;;;15.97;9.53;;;;;;;;;;5153283;27;20475;-73
2022/10/13 10:37:39;;;;;;;15.77;11.27;;;;;;;;;;5153954;27;20451;-73
2022/10/13 10:40:15;;;;;;;16.00;9.30;;;;;;;;;;5153931;27;20462;-73
2022/10/13 10:42:50;;;;;;;12.87;8.30;;;;;;;;;;5152019;27;20461;-73
2022/10/13 10:45:19;;;;;;;14.20;8.40;;;;;;;;;;5153353;27;20971;-74
2022/10/13 10:47:47;;;;;;;13.73;9.13;;;;;;;;;;5153759;27;20959;-74
2022/10/13 10:50:16;;;;;;;15.73;9.03;;;;;;;;;;5153993;27;20822;-74
2022/10/13 10:52:48;;;;;;;13.93;8.60;;;;;;;;;;5153741;27;21040;-73
2022/10/13 10:55:18;;;;;;;11.20;8.10;;;;;;;;;;5153318;27;21010;-73
2022/10/13 10:57:52;;;;;;;15.27;8.87;;;;;;;;;;5154190;27;20471;-73
2022/10/13 11:00:20;;;;;;;14.83;10.50;;;;;;;;;;5154435;27;20557;-73
2022/10/13 11:02:49;;;;;;;11.50;9.37;;;;;;;;;;5154448;27;20479;-73
2022/10/13 11:05:17;;;;;;;21.53;12.67;;;;;;;;;;5153802;27;20467;-73
2022/10/13 11:07:57;;;;;;;19.27;12.03;;;;;;;;;;5158272;27;20453;-73
2022/10/13 11:10:26;;;;;;;21.70;10.17;;;;;;;;;;5158495;27;20456;-73
2022/10/13 11:13:20;;;;;;;13.60;10.33;;;;;;;;;;5158404;27;20963;-73
2022/10/13 11:15:48;;;;;;;18.53;11.43;;;;;;;;;;5157761;27;20983;-73
2022/10/13 11:18:33;;;;;;;18.70;10.27;;;;;;;;;;5158312;27;20443;-73
2022/10/13 11:21:00;;;;;;;23.40;12.43;;;;;;;;;;5158557;27;20486;-73
2022/10/13 11:23:31;;;;;;;15.90;9.73;;;;;;;;;;5157657;27;20459;-74
2022/10/13 11:26:13;;;;;;;20.60;11.20;;;;;;;;;;5158140;27;20470;-73
2022/10/13 11:28:48;;;;;;;13.10;9.80;;;;;;;;;;5158128;27;20450;-73
2022/10/13 11:31:29;;;;;;;14.20;9.37;;;;;;;;;;5158122;27;20443;-73
2022/10/13 11:33:57;;;;;;;16.93;10.50;;;;;;;;;;5157369;27;20453;-73
2022/10/13 11:36:32;;;;;;;12.43;10.00;;;;;;;;;;5157944;27;20809;-73
2022/10/13 11:39:06;;;;;;;16.93;9.90;;;;;;;;;;5157900;27;20450;-72
2022/10/13 11:41:37;;;;;;;16.43;9.77;;;;;;;;;;5157820;27;20846;-72
2022/10/13 11:44:10;;;;;;;15.30;10.50;;;;;;;;;;5154682;27;20462;-72
2022/10/13 11:46:49;;;;;;;16.00;11.87;;;;;;;;;;5157672;27;20475;-72
2022/10/13 11:49:37;;;;;;;16.27;9.30;;;;;;;;;;5157908;27;20812;-72
2022/10/13 11:52:22;;;;;;;13.23;10.43;;;;;;;;;;5123039;27;20801;-72
2022/10/13 11:54:51;;;;;;;18.97;11.13;;;;;;;;;;5156842;27;20849;-72
2022/10/13 11:57:19;;;;;;;16.23;9.17;;;;;;;;;;5157783;27;20452;-72
2022/10/13 11:59:48;;;;;;;20.23;11.20;;;;;;;;;;5157666;27;20458;-72
2022/10/13 12:02:16;;;;;;;16.43;9.90;;;;;;;;;;5157305;27;20483;-72
2022/10/13 12:04:43;;;;;;;18.00;11.70;;;;;;;;;;5156863;27;20444;-72
2022/10/13 12:07:11;;;;;;;17.27;9.53;;;;;;;;;;5157445;27;20948;-72
2022/10/13 12:09:41;;;;;;;12.80;9.40;;;;;;;;;;5157375;27;20465;-72
2022/10/13 12:12:13;;;;;;;16.00;9.50;;;;;;;;;;5157392;27;20458;-72
2022/10/13 12:14:42;;;;;;;18.50;10.00;;;;;;;;;;5156338;27;20462;-72
2022/10/13 12:17:21;;;;;;;14.33;8.60;;;;;;;;;;5157354;27;20455;-72
2022/10/13 12:19:48;;;;;;;14.50;9.90;;;;;;;;;;5157182;27;20503;-72
2022/10/13 12:22:16;;;;;;;17.43;9.67;;;;;;;;;;5157116;27;21082;-72
2022/10/13 12:24:43;;;;;;;18.13;9.20;;;;;;;;;;5156374;27;20444;-72
2022/10/13 12:27:11;;;;;;;10.27;9.07;;;;;;;;;;5156976;27;20454;-72
2022/10/13 12:29:39;;;;;;;16.33;10.80;;;;;;;;;;5156908;27;20472;-72
2022/10/13 12:32:18;;;;;;;15.30;9.53;;;;;;;;;;5157019;27;20455;-72
2022/10/13 12:34:46;;;;;;;16.03;10.50;;;;;;;;;;5156196;27;20986;-72
2022/10/13 12:37:19;;;;;;;14.63;9.03;;;;;;;;;;5156847;27;20455;-72
2022/10/13 12:39:46;;;;;;;9.50;8.40;;;;;;;;;;5156651;27;20447;-72
2022/10/13 12:42:14;;;;;;;26.80;13.73;;;;;;;;;;5154033;27;20941;-73
2022/10/13 12:44:42;;;;;;;14.77;10.10;;;;;;;;;;5155903;27;20443;-72
2022/10/13 12:47:30;;;;;;;15.90;8.93;;;;;;;;;;5157006;27;20459;-73
2022/10/13 12:50:12;;;;;;;12.73;9.40;;;;;;;;;;5156486;27;20458;-72
2022/10/13 12:52:40;;;;;;;14.07;8.40;;;;;;;;;;5155540;27;20444;-72
2022/10/13 12:55:14;;;;;;;14.30;8.87;;;;;;;;;;5155821;27;20462;-72
2022/10/13 12:57:41;;;;;;;13.60;9.67;;;;;;;;;;5156436;27;20928;-72
2022/10/13 13:00:21;;;;;;;13.60;9.20;;;;;;;;;;5156482;27;20440;-72
2022/10/13 13:02:51;;;;;;;13.33;9.20;;;;;;;;;;5156202;27;20479;-72
2022/10/13 13:05:31;;;;;;;10.50;7.73;;;;;;;;;;5155922;27;20842;-72
2022/10/13 13:08:00;;;;;;;11.63;7.77;;;;;;;;;;5156391;27;20808;-72
2022/10/13 13:10:27;;;;;;;13.40;8.63;;;;;;;;;;5156112;27;20448;-72
2022/10/13 13:12:55;;;;;;;15.83;9.37;;;;;;;;;;5156008;27;20465;-72
2022/10/13 13:15:32;;;;;;;15.50;10.40;;;;;;;;;;5155308;27;20889;-72
2022/10/13 13:18:14;;;;;;;13.83;9.00;;;;;;;;;;5155991;27;20448;-72
2022/10/13 13:20:41;;;;;;;17.53;8.60;;;;;;;;;;5155127;27;20452;-72
2022/10/13 13:23:10;;;;;;;10.63;8.87;;;;;;;;;;5155950;27;20519;-72
2022/10/13 13:25:37;;;;;;;15.73;8.73;;;;;;;;;;5155221;27;20503;-72
2022/10/13 13:28:05;;;;;;;13.47;9.33;;;;;;;;;;5155846;27;20450;-72
2022/10/13 13:30:32;;;;;;;16.73;9.37;;;;;;;;;;5155335;27;20504;-72
2022/10/13 13:32:59;;;;;;;15.93;10.30;;;;;;;;;;5155641;27;20448;-72
2022/10/13 13:35:26;;;;;;;17.03;9.87;;;;;;;;;;5154996;27;20464;-72
2022/10/13 13:37:53;;;;;;;16.23;11.10;;;;;;;;;;5155808;27;20439;-72
2022/10/13 13:40:23;;;;;;;12.90;9.00;;;;;;;;;;5155484;27;20455;-72
2022/10/13 13:42:50;;;;;;;15.70;8.63;;;;;;;;;;5153363;27;20492;-73
2022/10/13 13:45:18;;;;;;;15.90;9.30;;;;;;;;;;5154927;27;20471;-73
2022/10/13 13:47:46;;;;;;;17.30;9.80;;;;;;;;;;5155562;27;20459;-73
2022/10/13 13:50:16;;;;;;;15.17;9.40;;;;;;;;;;5155443;27;20455;-72
2022/10/13 13:52:43;;;;;;;15.73;9.50;;;;;;;;;;5155234;27;20974;-72
2022/10/13 13:55:10;;;;;;;22.47;11.47;;;;;;;;;;5154641;27;20475;-73
2022/10/13 13:57:38;;;;;;;13.07;8.73;;;;;;;;;;5155111;27;20456;-73
2022/10/13 14:00:06;;;;;;;13.23;10.10;;;;;;;;;;5155419;27;20454;-73
2022/10/13 14:02:33;;;;;;;15.00;8.87;;;;;;;;;;5155092;27;21017;-73
2022/10/13 14:05:00;;;;;;;18.93;8.53;;;;;;;;;;5154241;27;20464;-72
2022/10/13 14:07:28;;;;;;;16.33;10.00;;;;;;;;;;5154859;27;20448;-72
2022/10/13 14:09:55;;;;;;;16.20;9.20;;;;;;;;;;5155212;27;20792;-72
2022/10/13 14:12:22;;;;;;;14.87;9.90;;;;;;;;;;5154843;27;20466;-72
2022/10/13 14:14:50;;;;;;;12.27;7.97;;;;;;;;;;5154360;27;20471;-72
2022/10/13 14:17:18;;;;;;;16.00;8.17;;;;;;;;;;5155018;27;20532;-73
2022/10/13 14:19:45;;;;;;;8.37;7.43;;;;;;;;;;5154889;27;20451;-72
2022/10/13 14:22:12;;;;;;;10.63;7.30;;;;;;;;;;5154924;27;20491;-72
2022/10/13 14:24:39;;;;;;;9.73;7.23;;;;;;;;;;5154171;27;20455;-73
2022/10/13 14:27:07;;;;;;;10.47;7.67;;;;;;;;;;5154982;27;20454;-73
2022/10/13 14:29:34;;;;;;;9.37;7.73;;;;;;;;;;5154801;27;20932;-72
2022/10/13 14:32:03;;;;;;;12.47;7.60;;;;;;;;;;5154616;27;20443;-72